sensor_id;sensor_type;location;lat;lon;timestamp;temperature;humidity
1359;DHT22;673;48.098;14.422;2023-04-24T00:00:26;11.20;99.90
1359;DHT22;673;48.098;14.422;2023-04-24T00:02:53;11.30;99.90
1359;DHT22;673;48.098;14.422;2023-04-24T00:05:22;11.50;99.90
1359;DHT22;673;48.098;14.422;2023-04-24T00:07:50;11.50;99.90
1359;DHT22;673;48.098;14.422;2023-04-24T00:10:18;11.50;99.90
1359;DHT22;673;48.098;14.422;2023-04-24T00:12:45;11.50;99.90
1359;DHT22;673;48.098;14.422;2023-04-24T00:15:14;11.50;99.90
1359;DHT22;673;48.098;14.422;2023-04-24T00:17:41;11.60;99.90
1359;DHT22;673;48.098;14.422;2023-04-24T00:20:08;11.60;99.90
1359;DHT22;673;48.098;14.422;2023-04-24T00:22:37;11.60;99.90
1359;DHT22;673;48.098;14.422;2023-04-24T00:25:05;11.70;99.90
1359;DHT22;673;48.098;14.422;2023-04-24T00:27:32;11.60;99.90
1359;DHT22;673;48.098;14.422;2023-04-24T00:30:00;11.60;99.90
1359;DHT22;673;48.098;14.422;2023-04-24T00:32:29;11.70;99.90
1359;DHT22;673;48.098;14.422;2023-04-24T00:34:56;11.70;99.90
1359;DHT22;673;48.098;14.422;2023-04-24T00:37:23;11.70;99.90
1359;DHT22;673;48.098;14.422;2023-04-24T00:39:50;11.70;99.90
1359;DHT22;673;48.098;14.422;2023-04-24T00:42:17;11.70;99.90
1359;DHT22;673;48.098;14.422;2023-04-24T00:44:45;11.70;99.90
1359;DHT22;673;48.098;14.422;2023-04-24T00:47:13;11.60;99.90
1359;DHT22;673;48.098;14.422;2023-04-24T00:49:42;11.60;99.90
1359;DHT22;673;48.098;14.422;2023-04-24T00:52:09;11.50;99.90
1359;DHT22;673;48.098;14.422;2023-04-24T00:54:36;11.50;99.90
1359;DHT22;673;48.098;14.422;2023-04-24T00:57:03;11.50;99.90
1359;DHT22;673;48.098;14.422;2023-04-24T00:59:30;11.40;99.90
1359;DHT22;673;48.098;14.422;2023-04-24T01:01:58;11.40;99.90
1359;DHT22;673;48.098;14.422;2023-04-24T01:04:25;11.30;99.90
1359;DHT22;673;48.098;14.422;2023-04-24T01:06:54;11.30;99.90
1359;DHT22;673;48.098;14.422;2023-04-24T01:09:23;11.30;99.90
1359;DHT22;673;48.098;14.422;2023-04-24T01:11:50;11.20;99.90
1359;DHT22;673;48.098;14.422;2023-04-24T01:14:17;11.20;99.90
1359;DHT22;673;48.098;14.422;2023-04-24T01:16:44;11.20;99.90
1359;DHT22;673;48.098;14.422;2023-04-24T01:19:11;11.20;99.90
1359;DHT22;673;48.098;14.422;2023-04-24T01:21:40;11.20;99.90
1359;DHT22;673;48.098;14.422;2023-04-24T01:24:10;11.10;99.90
1359;DHT22;673;48.098;14.422;2023-04-24T01:26:37;11.10;99.90
1359;DHT22;673;48.098;14.422;2023-04-24T01:29:04;11.10;99.90
1359;DHT22;673;48.098;14.422;2023-04-24T01:31:31;11.10;99.90
1359;DHT22;673;48.098;14.422;2023-04-24T01:33:59;11.10;99.90
1359;DHT22;673;48.098;14.422;2023-04-24T01:36:27;11.10;99.90
1359;DHT22;673;48.098;14.422;2023-04-24T01:38:55;11.10;99.90
1359;DHT22;673;48.098;14.422;2023-04-24T01:41:23;11.10;99.90
1359;DHT22;673;48.098;14.422;2023-04-24T01:43:51;11.10;99.90
1359;DHT22;673;48.098;14.422;2023-04-24T01:46:18;11.00;99.90
1359;DHT22;673;48.098;14.422;2023-04-24T01:48:46;11.00;99.90
1359;DHT22;673;48.098;14.422;2023-04-24T01:51:12;11.00;99.90
1359;DHT22;673;48.098;14.422;2023-04-24T01:53:39;11.00;99.90
1359;DHT22;673;48.098;14.422;2023-04-24T01:56:06;10.90;99.90
1359;DHT22;673;48.098;14.422;2023-04-24T01:58:35;10.90;99.90
1359;DHT22;673;48.098;14.422;2023-04-24T02:01:02;10.90;99.90
1359;DHT22;673;48.098;14.422;2023-04-24T02:03:29;10.80;99.90
1359;DHT22;673;48.098;14.422;2023-04-24T02:05:56;10.80;99.90
1359;DHT22;673;48.098;14.422;2023-04-24T02:08:23;10.80;99.90
1359;DHT22;673;48.098;14.422;2023-04-24T02:10:50;10.80;99.90
1359;DHT22;673;48.098;14.422;2023-04-24T02:13:17;10.80;99.90
1359;DHT22;673;48.098;14.422;2023-04-24T02:15:46;10.80;99.90
1359;DHT22;673;48.098;14.422;2023-04-24T02:18:13;10.80;99.90
1359;DHT22;673;48.098;14.422;2023-04-24T02:20:41;10.80;99.90
1359;DHT22;673;48.098;14.422;2023-04-24T02:23:08;10.80;99.90
1359;DHT22;673;48.098;14.422;2023-04-24T02:25:35;10.90;99.90
1359;DHT22;673;48.098;14.422;2023-04-24T02:28:01;10.90;99.90
1359;DHT22;673;48.098;14.422;2023-04-24T02:30:29;10.90;99.90
1359;DHT22;673;48.098;14.422;2023-04-24T02:32:57;10.90;99.90
1359;DHT22;673;48.098;14.422;2023-04-24T02:35:24;10.90;99.90
1359;DHT22;673;48.098;14.422;2023-04-24T02:37:51;11.00;99.90
1359;DHT22;673;48.098;14.422;2023-04-24T02:40:18;11.00;99.90
1359;DHT22;673;48.098;14.422;2023-04-24T02:42:45;10.90;99.90
1359;DHT22;673;48.098;14.422;2023-04-24T02:45:12;10.90;99.90
1359;DHT22;673;48.098;14.422;2023-04-24T02:47:39;10.90;99.90
1359;DHT22;673;48.098;14.422;2023-04-24T02:50:08;11.00;99.90
1359;DHT22;673;48.098;14.422;2023-04-24T02:52:35;10.90;99.90
1359;DHT22;673;48.098;14.422;2023-04-24T02:55:02;10.90;99.90
1359;DHT22;673;48.098;14.422;2023-04-24T02:57:29;11.00;99.90
1359;DHT22;673;48.098;14.422;2023-04-24T02:59:56;10.90;99.90
1359;DHT22;673;48.098;14.422;2023-04-24T03:02:23;11.00;99.90
1359;DHT22;673;48.098;14.422;2023-04-24T03:04:50;11.00;99.90
1359;DHT22;673;48.098;14.422;2023-04-24T03:07:19;10.90;99.90
1359;DHT22;673;48.098;14.422;2023-04-24T03:09:46;10.90;99.90
1359;DHT22;673;48.098;14.422;2023-04-24T03:12:13;11.00;99.90
1359;DHT22;673;48.098;14.422;2023-04-24T03:14:42;11.00;99.90
1359;DHT22;673;48.098;14.422;2023-04-24T03:17:09;11.10;99.90
1359;DHT22;673;48.098;14.422;2023-04-24T03:19:36;11.00;99.90
1359;DHT22;673;48.098;14.422;2023-04-24T03:22:04;10.90;99.90
1359;DHT22;673;48.098;14.422;2023-04-24T03:24:32;11.00;99.90
1359;DHT22;673;48.098;14.422;2023-04-24T03:26:59;10.90;99.90
1359;DHT22;673;48.098;14.422;2023-04-24T03:29:26;10.90;99.90
1359;DHT22;673;48.098;14.422;2023-04-24T03:31:53;10.90;99.90
1359;DHT22;673;48.098;14.422;2023-04-24T03:34:20;10.90;99.90
1359;DHT22;673;48.098;14.422;2023-04-24T03:36:47;10.90;99.90
1359;DHT22;673;48.098;14.422;2023-04-24T03:39:14;10.90;99.90
1359;DHT22;673;48.098;14.422;2023-04-24T03:41:42;10.90;99.90
1359;DHT22;673;48.098;14.422;2023-04-24T03:44:09;10.90;99.90
1359;DHT22;673;48.098;14.422;2023-04-24T03:46:36;10.90;99.90
1359;DHT22;673;48.098;14.422;2023-04-24T03:49:03;10.80;99.90
1359;DHT22;673;48.098;14.422;2023-04-24T03:51:30;10.90;99.90
1359;DHT22;673;48.098;14.422;2023-04-24T03:53:57;10.80;99.90
1359;DHT22;673;48.098;14.422;2023-04-24T03:56:24;10.90;99.90
1359;DHT22;673;48.098;14.422;2023-04-24T03:58:52;10.90;99.90
1359;DHT22;673;48.098;14.422;2023-04-24T04:01:19;10.90;99.90
1359;DHT22;673;48.098;14.422;2023-04-24T04:03:47;10.90;99.90
1359;DHT22;673;48.098;14.422;2023-04-24T04:06:14;10.90;99.90
1359;DHT22;673;48.098;14.422;2023-04-24T04:08:41;10.80;99.90
1359;DHT22;673;48.098;14.422;2023-04-24T04:11:08;10.80;99.90
1359;DHT22;673;48.098;14.422;2023-04-24T04:13:35;10.80;99.90
1359;DHT22;673;48.098;14.422;2023-04-24T04:16:03;10.80;99.90
1359;DHT22;673;48.098;14.422;2023-04-24T04:18:30;10.80;99.90
1359;DHT22;673;48.098;14.422;2023-04-24T04:20:57;10.80;99.90
1359;DHT22;673;48.098;14.422;2023-04-24T04:23:26;10.80;99.90
1359;DHT22;673;48.098;14.422;2023-04-24T04:25:53;10.80;99.90
1359;DHT22;673;48.098;14.422;2023-04-24T04:28:20;10.80;99.90
1359;DHT22;673;48.098;14.422;2023-04-24T04:30:47;10.80;99.90
1359;DHT22;673;48.098;14.422;2023-04-24T04:33:16;10.80;99.90
1359;DHT22;673;48.098;14.422;2023-04-24T04:35:43;10.80;99.90
1359;DHT22;673;48.098;14.422;2023-04-24T04:38:14;10.80;99.90
1359;DHT22;673;48.098;14.422;2023-04-24T04:40:41;10.80;99.90
1359;DHT22;673;48.098;14.422;2023-04-24T04:43:08;10.80;99.90
1359;DHT22;673;48.098;14.422;2023-04-24T04:45:36;10.80;99.90
1359;DHT22;673;48.098;14.422;2023-04-24T04:48:04;10.70;99.90
1359;DHT22;673;48.098;14.422;2023-04-24T04:50:34;10.70;99.90
1359;DHT22;673;48.098;14.422;2023-04-24T04:53:01;10.70;99.90
1359;DHT22;673;48.098;14.422;2023-04-24T04:55:28;10.60;99.90
1359;DHT22;673;48.098;14.422;2023-04-24T04:57:55;10.50;99.90
1359;DHT22;673;48.098;14.422;2023-04-24T05:00:23;10.50;99.90
1359;DHT22;673;48.098;14.422;2023-04-24T05:02:51;10.40;99.90
1359;DHT22;673;48.098;14.422;2023-04-24T05:05:18;10.40;99.90
1359;DHT22;673;48.098;14.422;2023-04-24T05:07:46;10.40;99.90
1359;DHT22;673;48.098;14.422;2023-04-24T05:10:13;10.40;99.90
1359;DHT22;673;48.098;14.422;2023-04-24T05:12:40;10.40;99.90
1359;DHT22;673;48.098;14.422;2023-04-24T05:15:08;10.40;99.90
1359;DHT22;673;48.098;14.422;2023-04-24T05:17:35;10.30;99.90
1359;DHT22;673;48.098;14.422;2023-04-24T05:20:02;10.30;99.90
1359;DHT22;673;48.098;14.422;2023-04-24T05:22:30;10.30;99.90
1359;DHT22;673;48.098;14.422;2023-04-24T05:24:59;10.30;99.90
1359;DHT22;673;48.098;14.422;2023-04-24T05:27:26;10.30;99.90
1359;DHT22;673;48.098;14.422;2023-04-24T05:29:53;10.30;99.90
1359;DHT22;673;48.098;14.422;2023-04-24T05:32:20;10.30;99.90
1359;DHT22;673;48.098;14.422;2023-04-24T05:34:47;10.20;99.90
1359;DHT22;673;48.098;14.422;2023-04-24T05:37:14;10.20;99.90
1359;DHT22;673;48.098;14.422;2023-04-24T05:39:41;10.30;99.90
1359;DHT22;673;48.098;14.422;2023-04-24T05:42:09;10.20;99.90
1359;DHT22;673;48.098;14.422;2023-04-24T05:44:36;10.20;99.90
1359;DHT22;673;48.098;14.422;2023-04-24T05:47:03;10.10;99.90
1359;DHT22;673;48.098;14.422;2023-04-24T05:49:30;10.10;99.90
1359;DHT22;673;48.098;14.422;2023-04-24T05:51:57;10.00;99.90
1359;DHT22;673;48.098;14.422;2023-04-24T05:54:24;10.00;99.90
1359;DHT22;673;48.098;14.422;2023-04-24T05:56:51;9.90;99.90
1359;DHT22;673;48.098;14.422;2023-04-24T05:59:21;9.90;99.90
1359;DHT22;673;48.098;14.422;2023-04-24T06:01:48;9.90;99.90
1359;DHT22;673;48.098;14.422;2023-04-24T06:04:15;9.90;99.90
1359;DHT22;673;48.098;14.422;2023-04-24T06:06:42;9.90;99.90
1359;DHT22;673;48.098;14.422;2023-04-24T06:09:09;9.90;99.90
1359;DHT22;673;48.098;14.422;2023-04-24T06:11:36;9.90;99.90
1359;DHT22;673;48.098;14.422;2023-04-24T06:14:03;9.90;99.90
1359;DHT22;673;48.098;14.422;2023-04-24T06:16:31;9.90;99.90
1359;DHT22;673;48.098;14.422;2023-04-24T06:18:58;9.90;99.90
1359;DHT22;673;48.098;14.422;2023-04-24T06:21:25;9.90;99.90
1359;DHT22;673;48.098;14.422;2023-04-24T06:23:53;9.90;99.90
1359;DHT22;673;48.098;14.422;2023-04-24T06:26:21;9.80;99.90
1359;DHT22;673;48.098;14.422;2023-04-24T06:28:50;9.80;99.90
1359;DHT22;673;48.098;14.422;2023-04-24T06:31:19;9.80;99.90
1359;DHT22;673;48.098;14.422;2023-04-24T06:33:48;9.80;99.90
1359;DHT22;673;48.098;14.422;2023-04-24T06:36:15;9.80;99.90
1359;DHT22;673;48.098;14.422;2023-04-24T06:38:42;9.90;99.90
1359;DHT22;673;48.098;14.422;2023-04-24T06:41:09;9.90;99.90
1359;DHT22;673;48.098;14.422;2023-04-24T06:43:36;9.90;99.90
1359;DHT22;673;48.098;14.422;2023-04-24T06:46:03;10.00;99.90
1359;DHT22;673;48.098;14.422;2023-04-24T06:48:30;10.00;99.90
1359;DHT22;673;48.098;14.422;2023-04-24T06:50:58;10.00;99.90
1359;DHT22;673;48.098;14.422;2023-04-24T06:53:26;10.00;99.90
1359;DHT22;673;48.098;14.422;2023-04-24T06:55:53;10.00;99.90
1359;DHT22;673;48.098;14.422;2023-04-24T06:58:20;10.10;99.90
1359;DHT22;673;48.098;14.422;2023-04-24T07:00:47;10.10;99.90
1359;DHT22;673;48.098;14.422;2023-04-24T07:03:14;10.20;99.90
1359;DHT22;673;48.098;14.422;2023-04-24T07:05:41;10.10;99.90
1359;DHT22;673;48.098;14.422;2023-04-24T07:08:09;10.20;99.90
1359;DHT22;673;48.098;14.422;2023-04-24T07:10:37;10.10;99.90
1359;DHT22;673;48.098;14.422;2023-04-24T07:13:04;10.10;99.90
1359;DHT22;673;48.098;14.422;2023-04-24T07:15:32;10.20;99.90
1359;DHT22;673;48.098;14.422;2023-04-24T07:17:59;10.20;99.90
1359;DHT22;673;48.098;14.422;2023-04-24T07:20:26;10.20;99.90
1359;DHT22;673;48.098;14.422;2023-04-24T07:22:53;10.30;99.90
1359;DHT22;673;48.098;14.422;2023-04-24T07:25:21;10.40;99.90
1359;DHT22;673;48.098;14.422;2023-04-24T07:27:48;10.50;99.90
1359;DHT22;673;48.098;14.422;2023-04-24T07:30:15;10.60;99.90
1359;DHT22;673;48.098;14.422;2023-04-24T07:32:43;10.60;99.90
1359;DHT22;673;48.098;14.422;2023-04-24T07:35:09;10.70;99.90
1359;DHT22;673;48.098;14.422;2023-04-24T07:37:37;10.80;99.90
1359;DHT22;673;48.098;14.422;2023-04-24T07:40:04;10.80;99.90
1359;DHT22;673;48.098;14.422;2023-04-24T07:42:33;10.80;99.90
1359;DHT22;673;48.098;14.422;2023-04-24T07:45:02;11.00;99.90
1359;DHT22;673;48.098;14.422;2023-04-24T07:47:29;11.10;99.90
1359;DHT22;673;48.098;14.422;2023-04-24T07:49:56;11.10;99.90
1359;DHT22;673;48.098;14.422;2023-04-24T07:52:23;11.00;99.90
1359;DHT22;673;48.098;14.422;2023-04-24T07:54:50;11.00;99.90
1359;DHT22;673;48.098;14.422;2023-04-24T07:57:18;10.90;99.90
1359;DHT22;673;48.098;14.422;2023-04-24T07:59:46;11.00;99.90
1359;DHT22;673;48.098;14.422;2023-04-24T08:02:13;11.20;99.90
1359;DHT22;673;48.098;14.422;2023-04-24T08:04:41;11.00;99.90
1359;DHT22;673;48.098;14.422;2023-04-24T08:07:08;11.00;99.90
1359;DHT22;673;48.098;14.422;2023-04-24T08:09:34;10.90;99.90
1359;DHT22;673;48.098;14.422;2023-04-24T08:12:01;11.00;99.90
1359;DHT22;673;48.098;14.422;2023-04-24T08:14:29;11.00;99.90
1359;DHT22;673;48.098;14.422;2023-04-24T08:16:57;11.00;99.90
1359;DHT22;673;48.098;14.422;2023-04-24T08:19:25;11.10;99.90
1359;DHT22;673;48.098;14.422;2023-04-24T08:21:52;11.10;99.90
1359;DHT22;673;48.098;14.422;2023-04-24T08:24:19;11.00;99.90
1359;DHT22;673;48.098;14.422;2023-04-24T08:26:46;11.00;99.90
1359;DHT22;673;48.098;14.422;2023-04-24T08:29:15;11.20;99.90
1359;DHT22;673;48.098;14.422;2023-04-24T08:31:42;11.20;99.90
1359;DHT22;673;48.098;14.422;2023-04-24T08:34:11;11.20;99.90
1359;DHT22;673;48.098;14.422;2023-04-24T08:36:38;11.00;99.90
1359;DHT22;673;48.098;14.422;2023-04-24T08:39:06;11.00;99.90
1359;DHT22;673;48.098;14.422;2023-04-24T08:41:34;11.10;99.90
1359;DHT22;673;48.098;14.422;2023-04-24T08:44:02;11.20;99.90
1359;DHT22;673;48.098;14.422;2023-04-24T08:46:30;11.20;99.90
1359;DHT22;673;48.098;14.422;2023-04-24T08:48:57;11.20;99.90
1359;DHT22;673;48.098;14.422;2023-04-24T08:51:26;11.20;99.90
1359;DHT22;673;48.098;14.422;2023-04-24T08:53:54;11.20;99.90
1359;DHT22;673;48.098;14.422;2023-04-24T08:56:22;11.20;99.90
1359;DHT22;673;48.098;14.422;2023-04-24T08:58:50;11.10;99.90
1359;DHT22;673;48.098;14.422;2023-04-24T09:01:18;11.10;99.90
1359;DHT22;673;48.098;14.422;2023-04-24T09:03:47;11.10;99.90
1359;DHT22;673;48.098;14.422;2023-04-24T09:06:16;11.10;99.90
1359;DHT22;673;48.098;14.422;2023-04-24T09:08:45;11.10;99.90
1359;DHT22;673;48.098;14.422;2023-04-24T09:11:14;11.20;99.90
1359;DHT22;673;48.098;14.422;2023-04-24T09:13:43;11.30;99.90
1359;DHT22;673;48.098;14.422;2023-04-24T09:16:09;11.50;99.90
1359;DHT22;673;48.098;14.422;2023-04-24T09:18:37;11.60;99.90
1359;DHT22;673;48.098;14.422;2023-04-24T09:21:07;11.50;99.90
1359;DHT22;673;48.098;14.422;2023-04-24T09:23:35;11.60;99.90
1359;DHT22;673;48.098;14.422;2023-04-24T09:26:04;11.50;99.90
1359;DHT22;673;48.098;14.422;2023-04-24T09:28:35;11.60;99.90
1359;DHT22;673;48.098;14.422;2023-04-24T09:31:05;11.70;99.90
1359;DHT22;673;48.098;14.422;2023-04-24T09:33:32;11.70;99.90
1359;DHT22;673;48.098;14.422;2023-04-24T09:36:00;11.80;99.90
1359;DHT22;673;48.098;14.422;2023-04-24T09:38:33;11.90;99.90
1359;DHT22;673;48.098;14.422;2023-04-24T09:41:05;12.20;99.90
1359;DHT22;673;48.098;14.422;2023-04-24T09:43:33;12.00;99.90
1359;DHT22;673;48.098;14.422;2023-04-24T09:46:05;12.10;99.90
1359;DHT22;673;48.098;14.422;2023-04-24T09:48:34;12.20;99.90
1359;DHT22;673;48.098;14.422;2023-04-24T09:51:03;12.10;99.90
1359;DHT22;673;48.098;14.422;2023-04-24T09:53:32;12.20;99.90
1359;DHT22;673;48.098;14.422;2023-04-24T09:56:07;12.40;99.90
1359;DHT22;673;48.098;14.422;2023-04-24T09:58:35;12.50;99.90
1359;DHT22;673;48.098;14.422;2023-04-24T10:01:04;12.60;99.90
1359;DHT22;673;48.098;14.422;2023-04-24T10:03:31;12.80;99.90
1359;DHT22;673;48.098;14.422;2023-04-24T10:05:59;13.00;99.90
1359;DHT22;673;48.098;14.422;2023-04-24T10:08:26;13.00;99.90
1359;DHT22;673;48.098;14.422;2023-04-24T10:11:00;13.10;99.90
1359;DHT22;673;48.098;14.422;2023-04-24T10:13:28;13.20;99.90
1359;DHT22;673;48.098;14.422;2023-04-24T10:15:56;13.30;99.90
1359;DHT22;673;48.098;14.422;2023-04-24T10:18:26;13.50;99.90
1359;DHT22;673;48.098;14.422;2023-04-24T10:20:54;13.60;99.90
1359;DHT22;673;48.098;14.422;2023-04-24T10:23:22;13.50;99.90
1359;DHT22;673;48.098;14.422;2023-04-24T10:25:49;13.70;99.90
1359;DHT22;673;48.098;14.422;2023-04-24T10:28:18;13.80;99.90
1359;DHT22;673;48.098;14.422;2023-04-24T10:30:47;13.90;99.90
1359;DHT22;673;48.098;14.422;2023-04-24T10:33:16;13.80;99.90
1359;DHT22;673;48.098;14.422;2023-04-24T10:35:46;13.50;99.90
1359;DHT22;673;48.098;14.422;2023-04-24T10:38:18;13.30;99.90
1359;DHT22;673;48.098;14.422;2023-04-24T10:40:49;13.10;99.90
1359;DHT22;673;48.098;14.422;2023-04-24T10:43:17;13.10;99.90
1359;DHT22;673;48.098;14.422;2023-04-24T10:48:44;13.50;99.90
1359;DHT22;673;48.098;14.422;2023-04-24T10:51:18;13.70;99.90
1359;DHT22;673;48.098;14.422;2023-04-24T10:53:50;14.30;99.90
1359;DHT22;673;48.098;14.422;2023-04-24T10:56:17;14.60;99.90
1359;DHT22;673;48.098;14.422;2023-04-24T10:58:50;14.70;99.90
1359;DHT22;673;48.098;14.422;2023-04-24T11:01:24;15.00;99.90
1359;DHT22;673;48.098;14.422;2023-04-24T11:03:56;14.70;99.90
1359;DHT22;673;48.098;14.422;2023-04-24T11:06:30;14.60;99.90
1359;DHT22;673;48.098;14.422;2023-04-24T11:09:09;14.60;99.90
1359;DHT22;673;48.098;14.422;2023-04-24T11:11:38;14.50;99.90
1359;DHT22;673;48.098;14.422;2023-04-24T11:14:10;14.70;99.90
1359;DHT22;673;48.098;14.422;2023-04-24T11:16:44;14.60;99.90
1359;DHT22;673;48.098;14.422;2023-04-24T11:19:21;14.60;99.90
1359;DHT22;673;48.098;14.422;2023-04-24T11:21:55;14.60;99.90
1359;DHT22;673;48.098;14.422;2023-04-24T11:24:30;15.00;99.90
1359;DHT22;673;48.098;14.422;2023-04-24T11:27:03;15.20;99.90
1359;DHT22;673;48.098;14.422;2023-04-24T11:29:46;15.20;99.90
1359;DHT22;673;48.098;14.422;2023-04-24T11:32:17;15.30;99.90
1359;DHT22;673;48.098;14.422;2023-04-24T11:34:48;15.40;99.90
1359;DHT22;673;48.098;14.422;2023-04-24T11:37:15;15.10;99.90
1359;DHT22;673;48.098;14.422;2023-04-24T11:39:42;14.50;99.90
1359;DHT22;673;48.098;14.422;2023-04-24T11:42:09;14.20;99.90
1359;DHT22;673;48.098;14.422;2023-04-24T11:44:36;14.10;99.90
1359;DHT22;673;48.098;14.422;2023-04-24T11:47:04;13.80;99.90
1359;DHT22;673;48.098;14.422;2023-04-24T11:49:32;13.90;99.90
1359;DHT22;673;48.098;14.422;2023-04-24T11:52:01;14.10;99.90
1359;DHT22;673;48.098;14.422;2023-04-24T11:54:28;14.20;99.90
1359;DHT22;673;48.098;14.422;2023-04-24T11:56:56;14.70;99.90
1359;DHT22;673;48.098;14.422;2023-04-24T11:59:23;14.80;99.90
1359;DHT22;673;48.098;14.422;2023-04-24T12:01:50;14.90;99.90
1359;DHT22;673;48.098;14.422;2023-04-24T12:04:18;15.00;99.90
1359;DHT22;673;48.098;14.422;2023-04-24T12:07:04;15.20;99.90
1359;DHT22;673;48.098;14.422;2023-04-24T12:09:41;15.40;99.90
1359;DHT22;673;48.098;14.422;2023-04-24T12:12:08;15.00;99.90
1359;DHT22;673;48.098;14.422;2023-04-24T12:14:49;14.90;99.90
1359;DHT22;673;48.098;14.422;2023-04-24T12:17:16;14.50;99.90
1359;DHT22;673;48.098;14.422;2023-04-24T12:19:47;14.60;99.90
1359;DHT22;673;48.098;14.422;2023-04-24T12:22:16;14.70;99.90
1359;DHT22;673;48.098;14.422;2023-04-24T12:24:56;15.00;99.90
1359;DHT22;673;48.098;14.422;2023-04-24T12:27:23;14.90;99.90
1359;DHT22;673;48.098;14.422;2023-04-24T12:29:55;14.70;99.90
1359;DHT22;673;48.098;14.422;2023-04-24T12:32:22;14.50;99.90
1359;DHT22;673;48.098;14.422;2023-04-24T12:34:51;14.10;99.90
1359;DHT22;673;48.098;14.422;2023-04-24T12:37:19;13.50;99.90
1359;DHT22;673;48.098;14.422;2023-04-24T12:39:59;11.20;99.90
1359;DHT22;673;48.098;14.422;2023-04-24T12:42:27;9.80;99.90
1359;DHT22;673;48.098;14.422;2023-04-24T12:44:57;9.40;99.90
1359;DHT22;673;48.098;14.422;2023-04-24T12:47:25;9.10;99.90
1359;DHT22;673;48.098;14.422;2023-04-24T12:49:52;8.90;99.90
1359;DHT22;673;48.098;14.422;2023-04-24T12:52:22;8.80;99.90
1359;DHT22;673;48.098;14.422;2023-04-24T12:54:49;8.70;99.90
1359;DHT22;673;48.098;14.422;2023-04-24T12:57:16;8.60;99.90
1359;DHT22;673;48.098;14.422;2023-04-24T12:59:43;8.60;99.90
1359;DHT22;673;48.098;14.422;2023-04-24T13:02:10;8.70;99.90
1359;DHT22;673;48.098;14.422;2023-04-24T13:04:38;8.80;99.90
1359;DHT22;673;48.098;14.422;2023-04-24T13:07:05;8.90;99.90
1359;DHT22;673;48.098;14.422;2023-04-24T13:09:34;9.00;99.90
1359;DHT22;673;48.098;14.422;2023-04-24T13:12:02;9.10;99.90
1359;DHT22;673;48.098;14.422;2023-04-24T13:14:31;9.20;99.90
1359;DHT22;673;48.098;14.422;2023-04-24T13:16:58;9.30;99.90
1359;DHT22;673;48.098;14.422;2023-04-24T13:19:25;9.30;99.90
1359;DHT22;673;48.098;14.422;2023-04-24T13:21:53;9.30;99.90
1359;DHT22;673;48.098;14.422;2023-04-24T13:24:21;9.50;99.90
1359;DHT22;673;48.098;14.422;2023-04-24T13:26:52;9.70;99.90
1359;DHT22;673;48.098;14.422;2023-04-24T13:29:19;9.80;99.90
1359;DHT22;673;48.098;14.422;2023-04-24T13:31:46;10.10;99.90
1359;DHT22;673;48.098;14.422;2023-04-24T13:34:13;10.40;99.90
1359;DHT22;673;48.098;14.422;2023-04-24T13:36:40;10.60;99.90
1359;DHT22;673;48.098;14.422;2023-04-24T13:39:07;11.00;99.90
1359;DHT22;673;48.098;14.422;2023-04-24T13:41:34;11.30;99.90
1359;DHT22;673;48.098;14.422;2023-04-24T13:44:03;11.40;99.90
1359;DHT22;673;48.098;14.422;2023-04-24T13:46:30;11.80;99.90
1359;DHT22;673;48.098;14.422;2023-04-24T13:48:57;12.00;99.90
1359;DHT22;673;48.098;14.422;2023-04-24T13:51:25;12.00;99.90
1359;DHT22;673;48.098;14.422;2023-04-24T13:53:52;12.10;99.90
1359;DHT22;673;48.098;14.422;2023-04-24T13:56:19;12.20;99.90
1359;DHT22;673;48.098;14.422;2023-04-24T13:58:46;12.50;99.90
1359;DHT22;673;48.098;14.422;2023-04-24T14:01:15;12.70;99.90
1359;DHT22;673;48.098;14.422;2023-04-24T14:03:42;12.90;99.90
1359;DHT22;673;48.098;14.422;2023-04-24T14:06:09;13.10;99.90
1359;DHT22;673;48.098;14.422;2023-04-24T14:08:36;13.20;99.90
1359;DHT22;673;48.098;14.422;2023-04-24T14:11:04;13.40;99.90
1359;DHT22;673;48.098;14.422;2023-04-24T14:13:31;13.40;99.90
1359;DHT22;673;48.098;14.422;2023-04-24T14:15:58;13.40;99.90
1359;DHT22;673;48.098;14.422;2023-04-24T14:18:27;13.30;99.90
1359;DHT22;673;48.098;14.422;2023-04-24T14:20:54;13.20;99.90
1359;DHT22;673;48.098;14.422;2023-04-24T14:23:21;13.10;99.90
1359;DHT22;673;48.098;14.422;2023-04-24T14:25:48;13.00;99.90
1359;DHT22;673;48.098;14.422;2023-04-24T14:28:17;13.10;99.90
1359;DHT22;673;48.098;14.422;2023-04-24T14:30:45;13.20;99.90
1359;DHT22;673;48.098;14.422;2023-04-24T14:33:12;13.20;99.90
1359;DHT22;673;48.098;14.422;2023-04-24T14:35:40;13.00;99.90
1359;DHT22;673;48.098;14.422;2023-04-24T14:38:08;13.00;99.90
1359;DHT22;673;48.098;14.422;2023-04-24T14:40:36;13.20;99.90
1359;DHT22;673;48.098;14.422;2023-04-24T14:43:03;13.10;99.90
1359;DHT22;673;48.098;14.422;2023-04-24T14:45:30;13.10;99.90
1359;DHT22;673;48.098;14.422;2023-04-24T14:47:57;12.90;99.90
1359;DHT22;673;48.098;14.422;2023-04-24T14:50:25;12.70;99.90
1359;DHT22;673;48.098;14.422;2023-04-24T14:52:55;12.50;99.90
1359;DHT22;673;48.098;14.422;2023-04-24T14:55:23;12.50;99.90
1359;DHT22;673;48.098;14.422;2023-04-24T14:57:50;12.60;99.90
1359;DHT22;673;48.098;14.422;2023-04-24T15:00:18;12.50;99.90
1359;DHT22;673;48.098;14.422;2023-04-24T15:02:45;12.60;99.90
1359;DHT22;673;48.098;14.422;2023-04-24T15:05:12;12.60;99.90
1359;DHT22;673;48.098;14.422;2023-04-24T15:07:39;12.50;99.90
1359;DHT22;673;48.098;14.422;2023-04-24T15:10:10;12.30;99.90
1359;DHT22;673;48.098;14.422;2023-04-24T15:12:37;12.10;99.90
1359;DHT22;673;48.098;14.422;2023-04-24T15:15:05;11.30;99.90
1359;DHT22;673;48.098;14.422;2023-04-24T15:17:32;10.90;99.90
1359;DHT22;673;48.098;14.422;2023-04-24T15:19:59;10.70;99.90
1359;DHT22;673;48.098;14.422;2023-04-24T15:22:26;10.60;99.90
1359;DHT22;673;48.098;14.422;2023-04-24T15:24:53;10.50;99.90
1359;DHT22;673;48.098;14.422;2023-04-24T15:27:21;10.50;99.90
1359;DHT22;673;48.098;14.422;2023-04-24T15:29:48;10.50;99.90
1359;DHT22;673;48.098;14.422;2023-04-24T15:32:15;10.50;99.90
1359;DHT22;673;48.098;14.422;2023-04-24T15:34:42;10.50;99.90
1359;DHT22;673;48.098;14.422;2023-04-24T15:37:09;10.50;99.90
1359;DHT22;673;48.098;14.422;2023-04-24T15:39:36;10.60;99.90
1359;DHT22;673;48.098;14.422;2023-04-24T15:42:04;10.60;99.90
1359;DHT22;673;48.098;14.422;2023-04-24T15:44:32;10.60;99.90
1359;DHT22;673;48.098;14.422;2023-04-24T15:47:00;10.50;99.90
1359;DHT22;673;48.098;14.422;2023-04-24T15:49:27;10.40;99.90
1359;DHT22;673;48.098;14.422;2023-04-24T15:51:54;10.40;99.90
1359;DHT22;673;48.098;14.422;2023-04-24T15:54:21;10.40;99.90
1359;DHT22;673;48.098;14.422;2023-04-24T15:56:49;10.50;99.90
1359;DHT22;673;48.098;14.422;2023-04-24T15:59:16;10.50;99.90
1359;DHT22;673;48.098;14.422;2023-04-24T16:01:45;10.50;99.90
1359;DHT22;673;48.098;14.422;2023-04-24T16:04:12;10.60;99.90
1359;DHT22;673;48.098;14.422;2023-04-24T16:06:40;10.60;99.90
1359;DHT22;673;48.098;14.422;2023-04-24T16:09:07;10.60;99.90